createdAt,value
2023-04-09T00:00:47.359Z,89.97
2023-04-09T00:03:13.933Z,102.53
2023-04-09T00:05:41.108Z,77.25
2023-04-09T00:08:08.247Z,81.53
2023-04-09T00:10:35.018Z,76.07
2023-04-09T00:13:01.582Z,84.75
2023-04-09T00:15:31.532Z,84.70
2023-04-09T00:17:59.116Z,81.13
2023-04-09T00:20:25.875Z,84.93
2023-04-09T00:22:53.223Z,84.45
2023-04-09T00:25:20.150Z,80.80
2023-04-09T00:27:47.004Z,80.07
2023-04-09T00:30:13.503Z,78.13
2023-04-09T00:32:40.151Z,77.10
2023-04-09T00:35:06.985Z,83.72
2023-04-09T00:37:33.674Z,75.60
2023-04-09T00:40:00.269Z,73.70
2023-04-09T00:42:27.208Z,75.82
2023-04-09T00:44:53.670Z,71.07
2023-04-09T00:47:20.209Z,74.93
2023-04-09T00:49:46.730Z,73.45
2023-04-09T00:52:19.314Z,74.38
2023-04-09T00:54:50.454Z,73.03
2023-04-09T00:57:17.876Z,70.80
2023-04-09T00:59:47.792Z,72.68
2023-04-09T01:02:14.346Z,73.10
2023-04-09T01:04:43.638Z,70.95
2023-04-09T01:07:20.774Z,76.35
2023-04-09T01:09:54.356Z,72.45
2023-04-09T01:12:47.804Z,71.05
2023-04-09T01:15:22.229Z,64.43
2023-04-09T01:17:57.704Z,66.50
2023-04-09T01:20:34.268Z,69.82
2023-04-09T01:23:03.902Z,66.72
2023-04-09T01:25:33.718Z,63.20
2023-04-09T01:28:06.201Z,65.97
2023-04-09T01:30:33.098Z,66.32
2023-04-09T01:33:01.020Z,61.17
2023-04-09T01:35:28.947Z,60.85
2023-04-09T01:37:58.360Z,59.83
2023-04-09T01:40:27.784Z,57.92
2023-04-09T01:42:55.486Z,57.95
2023-04-09T01:45:23.062Z,64.70
2023-04-09T01:47:49.812Z,67.50
2023-04-09T01:50:16.616Z,68.20
2023-04-09T01:52:43.250Z,63.05
2023-04-09T01:55:10.122Z,61.17
2023-04-09T01:57:39.378Z,58.42
2023-04-09T02:00:07.869Z,60.47
2023-04-09T02:02:41.376Z,65.18
2023-04-09T02:05:12.026Z,67.30
2023-04-09T02:07:54.173Z,67.90
2023-04-09T02:12:51.115Z,62.60
2023-04-09T02:15:23.105Z,61.50
2023-04-09T02:20:19.819Z,58.97
2023-04-09T02:22:47.948Z,64.10
2023-04-09T02:25:15.653Z,66.78
2023-04-09T02:27:42.211Z,65.38
2023-04-09T02:30:12.208Z,69.10
2023-04-09T02:32:38.750Z,64.53
2023-04-09T02:35:05.723Z,66.97
2023-04-09T02:37:32.194Z,72.45
2023-04-09T02:39:58.626Z,65.63
2023-04-09T02:42:25.204Z,69.43
2023-04-09T02:44:51.655Z,67.15
2023-04-09T02:47:18.132Z,70.13
2023-04-09T02:49:47.177Z,71.85
2023-04-09T02:52:13.656Z,73.38
2023-04-09T02:54:40.340Z,66.97
2023-04-09T02:57:06.810Z,72.93
2023-04-09T02:59:34.310Z,73.10
2023-04-09T03:02:00.905Z,75.18
2023-04-09T03:04:27.383Z,68.03
2023-04-09T03:06:53.903Z,67.45
2023-04-09T03:09:20.413Z,72.47
2023-04-09T03:11:46.885Z,64.97
2023-04-09T03:14:13.376Z,77.43
2023-04-09T03:16:39.888Z,68.72
2023-04-09T03:19:06.356Z,75.40
2023-04-09T03:21:33.208Z,75.80
2023-04-09T03:24:03.827Z,77.75
2023-04-09T03:26:36.100Z,71.88
2023-04-09T03:29:03.753Z,70.43
2023-04-09T03:31:30.710Z,80.28
2023-04-09T03:33:57.357Z,71.55
2023-04-09T03:36:23.974Z,73.88
2023-04-09T03:38:50.724Z,76.35
2023-04-09T03:41:17.332Z,78.72
2023-04-09T03:43:43.834Z,79.65
2023-04-09T03:46:17.632Z,77.78
2023-04-09T03:48:45.428Z,73.80
2023-04-09T03:51:13.162Z,73.07
2023-04-09T03:53:40.461Z,76.45
2023-04-09T03:56:07.278Z,76.97
2023-04-09T03:58:34.092Z,79.22
2023-04-09T04:01:00.995Z,84.43
2023-04-09T04:03:28.314Z,80.50
2023-04-09T04:06:00.633Z,78.03
2023-04-09T04:08:27.097Z,84.90
2023-04-09T04:10:53.603Z,82.40
2023-04-09T04:13:20.249Z,83.35
2023-04-09T04:15:46.787Z,80.50
2023-04-09T04:18:13.282Z,83.72
2023-04-09T04:20:41.017Z,79.47
2023-04-09T04:23:09.766Z,83.85
2023-04-09T04:25:36.265Z,85.10
2023-04-09T04:28:02.743Z,84.75
2023-04-09T04:30:29.222Z,91.10
2023-04-09T04:32:55.826Z,104.47
2023-04-09T04:35:25.685Z,106.93
2023-04-09T04:37:52.236Z,100.88
2023-04-09T04:40:18.801Z,103.63
2023-04-09T04:42:45.316Z,119.15
2023-04-09T04:45:11.813Z,109.90
2023-04-09T04:47:38.542Z,102.22
2023-04-09T04:50:06.413Z,103.13
2023-04-09T04:52:32.917Z,113.95
2023-04-09T04:54:59.890Z,112.55
2023-04-09T04:57:26.348Z,117.78
2023-04-09T04:59:52.863Z,113.22
2023-04-09T05:02:19.596Z,106.13
2023-04-09T05:04:46.374Z,107.75
2023-04-09T05:07:12.810Z,108.55
2023-04-09T05:09:39.342Z,122.68
2023-04-09T05:12:05.948Z,108.20
2023-04-09T05:14:32.469Z,115.22
2023-04-09T05:16:59.131Z,109.70
2023-04-09T05:19:25.720Z,112.55
2023-04-09T05:21:52.275Z,105.25
2023-04-09T05:24:18.803Z,115.28
2023-04-09T05:26:45.496Z,119.97
2023-04-09T05:29:17.298Z,121.80
2023-04-09T05:31:43.899Z,119.22
2023-04-09T05:34:10.419Z,107.63
2023-04-09T05:36:36.857Z,102.97
2023-04-09T05:39:03.466Z,109.13
2023-04-09T05:41:29.988Z,96.50
2023-04-09T05:43:57.447Z,107.10
2023-04-09T05:46:24.838Z,96.25
2023-04-09T05:48:51.744Z,97.20
2023-04-09T05:51:18.311Z,95.68
2023-04-09T05:53:44.821Z,104.28
2023-04-09T05:56:18.983Z,107.53
2023-04-09T05:58:45.517Z,104.82
2023-04-09T06:01:12.012Z,106.63
2023-04-09T06:03:38.756Z,115.28
2023-04-09T06:06:05.571Z,116.75
2023-04-09T06:08:35.579Z,110.05
2023-04-09T06:11:02.175Z,107.97
2023-04-09T06:13:28.715Z,112.25
2023-04-09T06:15:55.430Z,112.97
2023-04-09T06:18:23.208Z,103.78
2023-04-09T06:20:49.681Z,106.15
2023-04-09T06:23:16.368Z,107.30
2023-04-09T06:25:42.992Z,113.53
2023-04-09T06:28:09.452Z,106.05
2023-04-09T06:30:37.070Z,115.65
2023-04-09T06:33:03.763Z,117.88
2023-04-09T06:35:30.293Z,107.53
2023-04-09T06:37:56.732Z,107.53
2023-04-09T06:40:23.559Z,105.55
2023-04-09T06:42:50.329Z,103.20
2023-04-09T06:45:16.874Z,114.78
2023-04-09T06:47:43.451Z,119.40
2023-04-09T06:50:10.307Z,109.07
2023-04-09T06:52:36.869Z,105.50
2023-04-09T06:55:03.387Z,98.43
2023-04-09T06:57:29.816Z,103.25
2023-04-09T06:59:56.520Z,101.68
2023-04-09T07:02:23.249Z,97.00
2023-04-09T07:04:49.958Z,93.68
2023-04-09T07:07:16.507Z,89.25
2023-04-09T07:09:43.061Z,92.05
2023-04-09T07:12:09.500Z,83.82
2023-04-09T07:14:36.005Z,87.18
2023-04-09T07:17:02.601Z,84.93
2023-04-09T07:19:29.572Z,91.75
2023-04-09T07:21:56.190Z,92.63
2023-04-09T07:24:22.691Z,87.78
2023-04-09T07:26:52.085Z,84.88
2023-04-09T07:29:20.662Z,81.30
2023-04-09T07:31:47.215Z,88.60
2023-04-09T07:34:13.653Z,86.38
2023-04-09T07:36:41.239Z,84.35
2023-04-09T07:39:07.725Z,82.10
2023-04-09T07:41:34.195Z,78.53
2023-04-09T07:44:03.232Z,87.30
2023-04-09T07:46:29.875Z,82.35
2023-04-09T07:48:56.608Z,78.28
2023-04-09T07:51:23.339Z,80.60
2023-04-09T07:53:49.827Z,85.13
2023-04-09T07:56:16.356Z,80.82
2023-04-09T07:58:43.031Z,84.15
2023-04-09T08:01:09.522Z,81.85
2023-04-09T08:03:36.798Z,78.53
2023-04-09T08:06:03.817Z,82.25
2023-04-09T08:08:30.964Z,80.25
2023-04-09T08:10:57.491Z,82.10
2023-04-09T08:13:25.324Z,78.13
2023-04-09T08:15:52.336Z,72.80
2023-04-09T08:18:18.922Z,74.57
2023-04-09T08:20:45.668Z,73.60
2023-04-09T08:23:12.642Z,77.10
2023-04-09T08:25:42.425Z,76.18
2023-04-09T08:28:09.027Z,70.13
2023-04-09T08:30:35.571Z,72.28
2023-04-09T08:33:02.540Z,73.45
2023-04-09T08:35:31.918Z,73.57
2023-04-09T08:37:59.522Z,71.97
2023-04-09T08:40:26.014Z,75.95
2023-04-09T08:42:58.595Z,72.47
2023-04-09T08:45:25.136Z,71.50
2023-04-09T08:47:52.903Z,72.30
2023-04-09T08:50:20.598Z,75.70
2023-04-09T08:52:49.902Z,78.38
2023-04-09T08:55:16.620Z,81.47
2023-04-09T08:57:43.573Z,72.55
2023-04-09T09:00:10.709Z,74.20
2023-04-09T09:02:38.671Z,74.35
2023-04-09T09:05:05.727Z,67.57
2023-04-09T09:07:34.199Z,67.60
2023-04-09T09:10:05.092Z,64.07
2023-04-09T09:12:32.231Z,64.15
2023-04-09T09:14:58.779Z,64.97
2023-04-09T09:17:25.501Z,59.90
2023-04-09T09:19:52.140Z,67.10
2023-04-09T09:22:18.628Z,61.25
2023-04-09T09:24:50.347Z,58.72
2023-04-09T09:30:05.602Z,62.53
2023-04-09T09:32:35.211Z,61.55
2023-04-09T09:35:09.168Z,63.60
2023-04-09T09:37:35.712Z,67.00
2023-04-09T09:40:02.469Z,66.13
2023-04-09T09:42:29.040Z,71.05
2023-04-09T09:44:56.018Z,66.07
2023-04-09T09:47:23.452Z,65.78
2023-04-09T09:49:51.350Z,68.95
2023-04-09T09:52:26.903Z,62.35
2023-04-09T09:54:55.807Z,64.97
2023-04-09T09:57:26.074Z,58.55
2023-04-09T10:00:04.268Z,57.65
2023-04-09T10:02:40.732Z,60.10
2023-04-09T10:05:09.174Z,61.65
2023-04-09T10:07:37.395Z,59.95
2023-04-09T10:10:06.121Z,57.50
2023-04-09T10:12:33.926Z,53.80
2023-04-09T10:15:04.674Z,56.58
2023-04-09T10:17:32.298Z,51.35
2023-04-09T10:20:11.645Z,51.65
2023-04-09T10:22:39.201Z,49.72
2023-04-09T10:25:06.682Z,52.05
2023-04-09T10:27:33.166Z,50.75
2023-04-09T10:30:02.264Z,46.78
2023-04-09T10:32:36.115Z,46.63
2023-04-09T10:35:04.166Z,46.85
2023-04-09T10:37:31.819Z,47.28
2023-04-09T10:39:58.629Z,46.53
2023-04-09T10:42:32.959Z,45.97
2023-04-09T10:45:12.269Z,46.58
2023-04-09T10:47:40.846Z,51.05
2023-04-09T10:50:26.968Z,45.42
2023-04-09T10:52:56.552Z,40.10
2023-04-09T10:55:42.537Z,42.97
2023-04-09T10:58:13.208Z,41.33
2023-04-09T11:00:42.823Z,35.72
2023-04-09T11:03:09.696Z,29.83
2023-04-09T11:05:40.355Z,27.83
2023-04-09T11:08:12.342Z,33.80
2023-04-09T11:13:12.203Z,28.67
2023-04-09T11:15:39.152Z,29.75
2023-04-09T11:18:09.781Z,29.02
2023-04-09T11:20:36.504Z,25.48
2023-04-09T11:23:03.366Z,28.15
2023-04-09T11:25:31.750Z,29.00
2023-04-09T11:27:59.081Z,30.23
2023-04-09T11:30:26.221Z,25.65
2023-04-09T11:32:53.039Z,25.42
2023-04-09T11:35:22.496Z,27.70
2023-04-09T11:37:53.010Z,31.75
2023-04-09T11:40:20.573Z,31.92
2023-04-09T11:42:50.082Z,27.52
2023-04-09T11:45:17.458Z,30.38
2023-04-09T11:47:45.360Z,26.92
2023-04-09T11:50:13.465Z,28.25
2023-04-09T11:52:41.396Z,30.95
2023-04-09T11:55:11.524Z,28.08
2023-04-09T11:57:44.434Z,30.45
2023-04-09T12:00:12.755Z,27.70
2023-04-09T12:02:46.294Z,29.73
2023-04-09T12:05:25.477Z,30.63
2023-04-09T12:07:57.175Z,27.40
2023-04-09T12:10:31.782Z,30.25
2023-04-09T12:13:07.406Z,29.42
2023-04-09T12:15:36.717Z,31.27
2023-04-09T12:18:03.795Z,29.50
2023-04-09T12:20:36.251Z,30.88
2023-04-09T12:23:07.077Z,31.00
2023-04-09T12:25:36.901Z,27.45
2023-04-09T12:28:10.173Z,28.58
2023-04-09T12:30:36.799Z,26.33
2023-04-09T12:33:04.573Z,25.17
2023-04-09T12:35:31.759Z,24.23
2023-04-09T12:37:59.405Z,28.27
2023-04-09T12:40:26.403Z,23.73
2023-04-09T12:42:53.136Z,28.02
2023-04-09T12:45:20.354Z,24.77
2023-04-09T12:47:47.189Z,26.92
2023-04-09T12:50:17.487Z,24.95
2023-04-09T12:52:44.316Z,25.13
2023-04-09T12:55:11.922Z,27.00
2023-04-09T12:57:39.949Z,25.25
2023-04-09T13:00:07.823Z,28.13
2023-04-09T13:02:35.047Z,23.42
2023-04-09T13:05:02.003Z,26.33
2023-04-09T13:07:29.498Z,25.17
2023-04-09T13:09:56.944Z,23.83
2023-04-09T13:12:24.107Z,25.55
2023-04-09T13:14:53.569Z,26.55
2023-04-09T13:17:20.107Z,24.40
2023-04-09T13:19:46.637Z,23.00
2023-04-09T13:22:13.104Z,22.13
2023-04-09T13:24:39.646Z,24.65
2023-04-09T13:27:09.236Z,23.30
2023-04-09T13:29:36.091Z,22.40
2023-04-09T13:32:07.063Z,23.70
2023-04-09T13:34:35.058Z,24.00
2023-04-09T13:37:04.950Z,24.77
2023-04-09T13:39:31.442Z,23.38
2023-04-09T13:41:58.032Z,22.38
2023-04-09T13:44:25.180Z,25.08
2023-04-09T13:46:51.712Z,27.10
2023-04-09T13:49:18.290Z,26.88
2023-04-09T13:51:44.828Z,25.70
2023-04-09T13:54:11.602Z,27.33
2023-04-09T13:56:39.349Z,29.73
2023-04-09T13:59:06.420Z,28.63
2023-04-09T14:01:34.325Z,27.83
2023-04-09T14:04:00.989Z,29.27
2023-04-09T14:06:27.557Z,28.25
2023-04-09T14:08:54.442Z,27.42
2023-04-09T14:11:21.202Z,24.42
2023-04-09T14:13:48.400Z,30.60
2023-04-09T14:16:14.915Z,28.40
2023-04-09T14:18:41.695Z,28.05
2023-04-09T14:21:10.153Z,30.33
2023-04-09T14:23:37.346Z,29.90
2023-04-09T14:26:04.841Z,32.75
2023-04-09T14:28:33.385Z,29.40
2023-04-09T14:31:00.226Z,29.73
2023-04-09T14:33:26.998Z,29.70
2023-04-09T14:35:53.536Z,29.80
2023-04-09T14:38:20.122Z,32.20
2023-04-09T14:40:46.573Z,33.55
2023-04-09T14:43:16.599Z,31.92
2023-04-09T14:45:43.163Z,35.63
2023-04-09T14:48:09.668Z,32.70
2023-04-09T14:50:36.647Z,32.30
2023-04-09T14:53:04.468Z,31.92
2023-04-09T14:55:31.136Z,33.05
2023-04-09T14:57:59.574Z,33.03
2023-04-09T15:00:26.083Z,35.78
2023-04-09T15:02:52.826Z,34.60
2023-04-09T15:05:19.529Z,34.53
2023-04-09T15:07:46.129Z,32.95
2023-04-09T15:10:15.684Z,35.40
2023-04-09T15:12:42.173Z,35.53
2023-04-09T15:15:09.670Z,36.10
2023-04-09T15:17:36.747Z,36.28
2023-04-09T15:20:04.173Z,36.22
2023-04-09T15:22:30.756Z,38.15
2023-04-09T15:25:00.617Z,39.65
2023-04-09T15:27:27.051Z,42.63
2023-04-09T15:29:53.547Z,39.97
2023-04-09T15:32:20.056Z,40.42
2023-04-09T15:34:46.651Z,37.53
2023-04-09T15:37:13.107Z,40.70
2023-04-09T15:39:39.615Z,38.20
2023-04-09T15:42:07.937Z,39.20
2023-04-09T15:44:36.288Z,47.05
2023-04-09T15:47:02.831Z,39.78
2023-04-09T15:49:32.559Z,43.00
2023-04-09T15:51:59.010Z,41.38
2023-04-09T15:54:25.588Z,42.03
2023-04-09T15:56:55.270Z,41.22
2023-04-09T15:59:22.888Z,43.80
2023-04-09T16:01:49.485Z,43.22
2023-04-09T16:04:16.046Z,46.58
2023-04-09T16:06:42.555Z,45.17
2023-04-09T16:09:09.071Z,44.33
2023-04-09T16:11:38.135Z,44.05
2023-04-09T16:14:04.623Z,43.38
2023-04-09T16:16:31.189Z,45.13
2023-04-09T16:18:57.705Z,45.90
2023-04-09T16:21:24.234Z,45.67
2023-04-09T16:23:50.747Z,47.03
2023-04-09T16:26:17.213Z,46.53
2023-04-09T16:28:43.646Z,45.33
2023-04-09T16:31:10.270Z,48.15
2023-04-09T16:33:36.752Z,49.20
2023-04-09T16:36:03.499Z,50.53
2023-04-09T16:38:31.109Z,49.95
2023-04-09T16:40:57.638Z,48.72
2023-04-09T16:43:25.322Z,48.20
2023-04-09T16:45:52.286Z,53.72
2023-04-09T16:48:18.879Z,49.30
2023-04-09T16:50:45.475Z,51.88
2023-04-09T16:53:11.943Z,52.60
2023-04-09T16:55:38.471Z,53.38
2023-04-09T16:58:04.965Z,54.50
2023-04-09T17:00:31.486Z,51.63
2023-04-09T17:02:58.201Z,55.60
2023-04-09T17:05:25.056Z,53.53
2023-04-09T17:07:52.449Z,51.55
2023-04-09T17:10:19.499Z,53.33
2023-04-09T17:12:46.063Z,52.25
2023-04-09T17:15:12.733Z,50.83
2023-04-09T17:17:43.892Z,53.85
2023-04-09T17:20:11.264Z,52.38
2023-04-09T17:22:39.252Z,53.70
2023-04-09T17:25:06.144Z,55.95
2023-04-09T17:27:32.714Z,52.53
2023-04-09T17:29:59.194Z,55.72
2023-04-09T17:32:26.033Z,53.08
2023-04-09T17:34:52.597Z,54.78
2023-04-09T17:37:19.835Z,54.72
2023-04-09T17:39:46.402Z,55.70
2023-04-09T17:42:16.397Z,57.03
2023-04-09T17:44:43.806Z,56.30
2023-04-09T17:47:11.561Z,54.45
2023-04-09T17:49:39.134Z,53.85
2023-04-09T17:52:07.382Z,52.20
2023-04-09T17:54:34.728Z,51.10
2023-04-09T17:57:04.084Z,55.25
2023-04-09T17:59:31.220Z,51.45
2023-04-09T18:01:57.910Z,54.25
2023-04-09T18:04:24.996Z,58.42
2023-04-09T18:06:52.360Z,52.05
2023-04-09T18:09:19.213Z,53.75
2023-04-09T18:11:46.260Z,58.28
2023-04-09T18:14:12.824Z,57.95
2023-04-09T18:16:39.473Z,57.42
2023-04-09T18:19:07.279Z,56.15
2023-04-09T18:21:36.529Z,57.45
2023-04-09T18:24:03.658Z,63.63
2023-04-09T18:26:30.801Z,59.25
2023-04-09T18:29:00.161Z,83.90
2023-04-09T18:31:27.874Z,82.88
2023-04-09T18:33:54.453Z,75.07
2023-04-09T18:36:20.921Z,74.80
2023-04-09T18:38:47.411Z,71.50
2023-04-09T18:41:22.315Z,68.60
2023-04-09T18:43:48.903Z,69.72
2023-04-09T18:46:15.448Z,68.18
2023-04-09T18:48:43.370Z,71.32
2023-04-09T18:51:10.625Z,74.45
2023-04-09T18:53:37.179Z,72.72
2023-04-09T18:56:03.868Z,67.47
2023-04-09T18:58:30.453Z,64.78
2023-04-09T19:00:57.369Z,66.25
2023-04-09T19:03:24.153Z,64.65
2023-04-09T19:05:51.687Z,59.17
2023-04-09T19:08:18.165Z,56.85
2023-04-09T19:10:47.398Z,57.17
2023-04-09T19:13:13.879Z,58.05
2023-04-09T19:15:40.366Z,57.15
2023-04-09T19:18:06.936Z,63.22
2023-04-09T19:20:33.494Z,56.97
2023-04-09T19:22:59.997Z,57.88
2023-04-09T19:25:27.141Z,55.33
2023-04-09T19:27:54.260Z,61.85
2023-04-09T19:30:24.713Z,56.22
2023-04-09T19:32:52.141Z,57.70
2023-04-09T19:35:18.709Z,59.65
2023-04-09T19:37:45.244Z,57.72
2023-04-09T19:40:11.992Z,54.45
2023-04-09T19:42:38.577Z,58.05
2023-04-09T19:45:05.662Z,60.20
2023-04-09T19:47:32.265Z,60.95
2023-04-09T19:49:58.749Z,61.90
2023-04-09T19:52:25.376Z,59.88
2023-04-09T19:54:58.518Z,58.72
2023-04-09T19:57:26.524Z,64.30
2023-04-09T19:59:53.968Z,62.40
2023-04-09T20:02:20.589Z,61.40
2023-04-09T20:04:47.216Z,66.03
2023-04-09T20:07:14.233Z,64.22
2023-04-09T20:09:44.899Z,62.83
2023-04-09T20:12:11.319Z,61.22
2023-04-09T20:14:40.755Z,61.78
2023-04-09T20:17:15.069Z,66.70
2023-04-09T20:19:41.781Z,63.17
2023-04-09T20:22:08.294Z,65.13
2023-04-09T20:24:35.382Z,63.45
2023-04-09T20:27:02.088Z,64.07
2023-04-09T20:29:28.622Z,61.78
2023-04-09T20:31:55.252Z,63.83
2023-04-09T20:34:26.622Z,61.38
2023-04-09T20:36:58.038Z,63.90
2023-04-09T20:39:26.865Z,58.55
2023-04-09T20:41:55.010Z,58.00
2023-04-09T20:44:21.478Z,54.63
2023-04-09T20:46:52.829Z,54.65
2023-04-09T20:49:22.583Z,56.70
2023-04-09T20:51:49.924Z,56.30
2023-04-09T20:54:18.028Z,53.90
2023-04-09T20:56:44.719Z,57.35
2023-04-09T20:59:11.861Z,56.83
2023-04-09T21:01:38.471Z,54.22
2023-04-09T21:04:05.143Z,57.55
2023-04-09T21:06:31.764Z,55.78
2023-04-09T21:09:03.020Z,56.78
2023-04-09T21:11:29.800Z,55.53
2023-04-09T21:13:58.919Z,56.20
2023-04-09T21:16:27.193Z,55.08
2023-04-09T21:18:57.148Z,58.03
2023-04-09T21:21:23.979Z,59.63
2023-04-09T21:23:50.593Z,58.33
2023-04-09T21:26:17.113Z,54.58
2023-04-09T21:28:43.948Z,54.13
2023-04-09T21:31:17.132Z,51.08
2023-04-09T21:33:43.676Z,51.58
2023-04-09T21:36:16.547Z,46.72
2023-04-09T21:38:43.063Z,49.80
2023-04-09T21:41:09.710Z,50.28
2023-04-09T21:43:38.176Z,48.17
2023-04-09T21:46:04.974Z,43.40
2023-04-09T21:48:31.418Z,37.53
2023-04-09T21:50:58.401Z,36.83
2023-04-09T21:53:26.627Z,33.30
2023-04-09T21:55:53.185Z,31.50
2023-04-09T21:58:32.329Z,32.20
2023-04-09T22:00:58.924Z,32.20
2023-04-09T22:03:26.043Z,29.65
2023-04-09T22:05:52.716Z,30.10
2023-04-09T22:08:19.202Z,31.15
2023-04-09T22:10:45.651Z,30.70
2023-04-09T22:13:14.964Z,30.30
2023-04-09T22:15:41.860Z,27.63
2023-04-09T22:18:08.988Z,27.48
2023-04-09T22:20:36.152Z,26.58
2023-04-09T22:23:02.741Z,26.25
2023-04-09T22:25:34.801Z,27.63
2023-04-09T22:28:01.356Z,26.77
2023-04-09T22:30:27.982Z,26.55
2023-04-09T22:32:54.565Z,26.52
2023-04-09T22:35:21.189Z,25.63
2023-04-09T22:37:47.790Z,24.15
2023-04-09T22:40:19.941Z,27.08
2023-04-09T22:42:47.079Z,26.48
2023-04-09T22:45:14.163Z,22.63
2023-04-09T22:47:40.868Z,23.77
2023-04-09T22:50:08.261Z,22.38
2023-04-09T22:52:34.746Z,22.67
2023-04-09T22:55:02.024Z,25.20
2023-04-09T22:57:30.249Z,24.00
2023-04-09T23:00:00.048Z,25.90
2023-04-09T23:02:27.256Z,24.40
2023-04-09T23:04:57.683Z,24.88
2023-04-09T23:07:34.510Z,23.80
2023-04-09T23:10:01.762Z,26.45
2023-04-09T23:12:28.230Z,25.08
2023-04-09T23:14:54.717Z,23.98
2023-04-09T23:17:22.634Z,24.42
2023-04-09T23:19:49.148Z,28.13
2023-04-09T23:22:15.854Z,28.42
2023-04-09T23:24:42.366Z,27.95
2023-04-09T23:27:08.829Z,28.27
2023-04-09T23:29:35.342Z,31.15
2023-04-09T23:32:06.313Z,34.38
2023-04-09T23:34:32.793Z,39.42
2023-04-09T23:36:59.684Z,39.03
2023-04-09T23:39:26.179Z,41.15
2023-04-09T23:41:52.871Z,40.67
2023-04-09T23:44:19.429Z,35.90
2023-04-09T23:46:46.660Z,37.90
2023-04-09T23:49:13.225Z,34.60
2023-04-09T23:51:39.686Z,33.28
2023-04-09T23:54:06.899Z,32.20
2023-04-09T23:56:42.360Z,38.33
2023-04-09T23:59:12.300Z,32.58
